Time;durP1;ratioP1;P1;durP2;ratioP2;P2;SDS_P1;SDS_P2;PMS_P1;PMS_P2;Temp;Humidity;BMP_temperature;BMP_pressure;BME280_temperature;BME280_humidity;BME280_pressure;Samples;Min_cycle;Max_cycle;Signal;HPM_P1;HPM_P2
2022/07/18 00:01:09;;;;;;;;;;;;;;;28.36;30.21;97439.78;4218131;28;5608;-67
2022/07/18 00:03:12;;;;;;;;;;;;;;;28.36;30.32;97446.00;4203314;28;7309;-67
2022/07/18 00:05:15;;;;;;;;;;;;;;;28.34;30.28;97440.06;4218081;28;5601;-66
2022/07/18 00:07:18;;;;;;;;;;;;;;;28.33;30.36;97443.09;4217568;28;5963;-67
2022/07/18 00:09:23;;;;;;;;;;;;;;;28.32;30.49;97450.44;4217573;28;5695;-67
2022/07/18 00:11:26;;;;;;;;;;;;;;;28.32;30.47;97438.75;4225273;28;5668;-67
2022/07/18 00:13:30;;;;;;;;;;;;;;;28.30;30.61;97447.16;4234819;28;5690;-66
2022/07/18 00:15:33;;;;;;;;;;;;;;;28.29;30.79;97440.13;4234933;28;5609;-67
2022/07/18 00:17:36;;;;;;;;;;;;;;;28.28;30.91;97437.69;4191828;28;5665;-67
2022/07/18 00:19:40;;;;;;;;;;;;;;;28.24;30.91;97451.03;4217848;28;5609;-67
2022/07/18 00:21:43;;;;;;;;;;;;;;;28.25;31.04;97449.13;4218292;28;5628;-67
2022/07/18 00:23:45;;;;;;;;;;;;;;;28.25;31.18;97451.84;4218628;28;5111;-67
2022/07/18 00:25:48;;;;;;;;;;;;;;;28.23;31.22;97452.13;4222277;28;5598;-67
2022/07/18 00:27:51;;;;;;;;;;;;;;;28.24;31.13;97458.38;4234349;28;5609;-67
2022/07/18 00:29:55;;;;;;;;;;;;;;;28.23;31.43;97446.72;4234433;28;5693;-67
2022/07/18 00:31:58;;;;;;;;;;;;;;;28.22;31.25;97455.97;4234380;28;5594;-67
2022/07/18 00:34:01;;;;;;;;;;;;;;;28.22;31.36;97453.25;4216415;28;5632;-67
2022/07/18 00:36:05;;;;;;;;;;;;;;;28.22;31.60;97450.53;4234475;28;5692;-67
2022/07/18 00:38:08;;;;;;;;;;;;;;;28.19;31.77;97442.94;4234650;28;5617;-67
2022/07/18 00:40:11;;;;;;;;;;;;;;;28.19;31.63;97445.66;4234784;28;5602;-67
2022/07/18 00:42:14;;;;;;;;;;;;;;;28.19;31.88;97451.09;4234938;28;5712;-67
2022/07/18 00:44:18;;;;;;;;;;;;;;;28.17;31.82;97447.84;4234382;28;5064;-67
2022/07/18 00:46:27;;;;;;;;;;;;;;;28.16;31.71;97448.16;4234467;28;5606;-66
2022/07/18 00:48:30;;;;;;;;;;;;;;;28.14;31.81;97448.44;4234615;28;5629;-67
2022/07/18 00:50:33;;;;;;;;;;;;;;;28.12;32.09;97440.59;4234429;28;5610;-67
2022/07/18 00:52:37;;;;;;;;;;;;;;;28.12;32.04;97439.78;4216239;28;5605;-67
2022/07/18 00:54:40;;;;;;;;;;;;;;;28.12;31.94;97447.94;4234492;28;5626;-67
2022/07/18 00:56:44;;;;;;;;;;;;;;;28.11;32.34;97446.31;4234628;28;5710;-66
2022/07/18 00:58:47;;;;;;;;;;;;;;;28.11;32.09;97449.03;4234447;28;5590;-67
2022/07/18 01:03:12;;;;;;;;;;;;;;;28.10;32.26;97447.41;4216360;28;5608;-66
2022/07/18 01:05:15;;;;;;;;;;;;;;;28.10;32.37;97450.13;4234708;28;5617;-67
2022/07/18 01:07:18;;;;;;;;;;;;;;;28.11;32.47;97443.59;4234239;28;6118;-67
2022/07/18 01:09:21;;;;;;;;;;;;;;;28.10;32.40;97450.13;4234327;28;5788;-67
2022/07/18 01:11:24;;;;;;;;;;;;;;;28.08;32.15;97449.59;4238098;28;5673;-67
2022/07/18 01:13:27;;;;;;;;;;;;;;;28.06;32.32;97452.59;4237687;28;5611;-67
2022/07/18 01:15:30;;;;;;;;;;;;;;;28.07;32.53;97450.69;4237810;28;5610;-67
2022/07/18 01:17:34;;;;;;;;;;;;;;;28.06;32.30;97446.34;4182373;28;5643;-67
2022/07/18 01:19:38;;;;;;;;;;;;;;;28.02;32.33;97439.91;4237691;28;5864;-67
2022/07/18 01:21:42;;;;;;;;;;;;;;;28.01;32.58;97449.97;4237969;28;5735;-67
2022/07/18 01:23:45;;;;;;;;;;;;;;;28.01;32.52;97451.88;4237748;28;7631;-67
2022/07/18 01:25:48;;;;;;;;;;;;;;;27.99;32.53;97462.22;4237652;28;5778;-67
2022/07/18 01:27:51;;;;;;;;;;;;;;;27.97;32.36;97453.53;4237522;28;5510;-67
2022/07/18 01:29:54;;;;;;;;;;;;;;;27.95;32.64;97456.53;4237191;28;5506;-67
2022/07/18 01:32:03;;;;;;;;;;;;;;;27.97;32.66;97453.53;4219112;28;5680;-67
2022/07/18 01:34:06;;;;;;;;;;;;;;;27.96;32.78;97451.91;4237464;27;5581;-67
2022/07/18 01:36:09;;;;;;;;;;;;;;;27.96;32.60;97460.06;4237419;28;5622;-67
2022/07/18 01:38:14;;;;;;;;;;;;;;;27.96;32.60;97462.78;4237217;28;5809;-67
2022/07/18 01:40:17;;;;;;;;;;;;;;;27.96;32.75;97457.34;4219165;28;5628;-67
2022/07/18 01:42:19;;;;;;;;;;;;;;;27.96;32.75;97457.34;4237300;28;5610;-66
2022/07/18 01:44:22;;;;;;;;;;;;;;;27.96;32.71;97460.06;4218956;28;5719;-66
2022/07/18 01:46:25;;;;;;;;;;;;;;;27.94;32.89;97462.25;4237521;28;5602;-66
2022/07/18 01:48:28;;;;;;;;;;;;;;;27.93;32.98;97461.44;4237466;28;5610;-66
2022/07/18 01:50:31;;;;;;;;;;;;;;;27.96;33.08;97462.78;4237276;28;7647;-66
2022/07/18 01:52:34;;;;;;;;;;;;;;;27.95;32.97;97459.25;4237170;28;5594;-66
2022/07/18 01:54:38;;;;;;;;;;;;;;;27.94;33.00;97456.81;4219046;28;5683;-66
2022/07/18 01:56:42;;;;;;;;;;;;;;;27.92;32.84;97453.59;4237323;28;5689;-66
2022/07/18 01:58:45;;;;;;;;;;;;;;;27.91;33.45;97449.25;4236952;28;5594;-65
2022/07/18 02:00:48;;;;;;;;;;;;;;;27.87;33.26;97449.03;4237228;28;5649;-66
2022/07/18 02:02:50;;;;;;;;;;;;;;;27.83;33.52;97442.53;4237022;28;5617;-66
2022/07/18 02:05:02;;;;;;;;;;;;;;;27.79;33.85;97450.47;4237342;28;5609;-66
2022/07/18 02:07:05;;;;;;;;;;;;;;;27.78;34.02;97456.19;4236864;28;5607;-66
2022/07/18 02:09:09;;;;;;;;;;;;;;;27.75;34.15;97451.34;4236922;28;5731;-66
2022/07/18 02:11:13;;;;;;;;;;;;;;;27.75;34.29;97451.34;4236945;28;5701;-67
2022/07/18 02:13:17;;;;;;;;;;;;;;;27.73;34.11;97458.94;4236749;28;5589;-66
2022/07/18 02:15:20;;;;;;;;;;;;;;;27.72;34.44;97452.69;4237065;28;5597;-66
2022/07/18 02:17:23;;;;;;;;;;;;;;;27.71;34.36;97458.44;4192732;28;5201;-66
2022/07/18 02:19:26;;;;;;;;;;;;;;;27.69;34.41;97452.47;4236786;28;5651;-66
2022/07/18 02:21:29;;;;;;;;;;;;;;;27.67;34.50;97466.34;4235579;28;5808;-67
2022/07/18 02:23:32;;;;;;;;;;;;;;;27.66;34.47;97472.88;4236651;28;5773;-66
2022/07/18 02:25:35;;;;;;;;;;;;;;;27.63;34.69;97469.88;4235582;28;5601;-66
2022/07/18 02:27:39;;;;;;;;;;;;;;;27.62;34.85;97469.06;4235369;28;5788;-66
2022/07/18 02:29:43;;;;;;;;;;;;;;;27.61;34.74;97475.59;4236553;27;5659;-66
2022/07/18 02:31:46;;;;;;;;;;;;;;;27.60;34.65;97476.69;4236679;28;5659;-66
2022/07/18 02:33:48;;;;;;;;;;;;;;;27.57;34.95;97471.84;4236446;27;5782;-66
2022/07/18 02:35:52;;;;;;;;;;;;;;;27.52;35.14;97474.59;4236245;28;5656;-66
2022/07/18 02:37:56;;;;;;;;;;;;;;;27.50;34.87;97469.44;4236480;28;6309;-67
2022/07/18 02:39:59;;;;;;;;;;;;;;;27.49;35.11;97470.56;4235065;28;6506;-68
2022/07/18 02:42:02;;;;;;;;;;;;;;;27.50;35.15;97472.16;4236638;28;5659;-67
2022/07/18 02:44:06;;;;;;;;;;;;;;;27.49;35.28;97470.56;4236128;28;5647;-67
2022/07/18 02:46:09;;;;;;;;;;;;;;;27.49;35.24;97472.47;4236543;28;5663;-67
2022/07/18 02:48:12;;;;;;;;;;;;;;;27.46;35.34;97468.41;4236140;28;5688;-67
2022/07/18 02:50:15;;;;;;;;;;;;;;;27.48;35.13;97478.97;4236055;28;5655;-67
2022/07/18 02:52:18;;;;;;;;;;;;;;;27.48;35.21;97470.84;4236419;28;5783;-67
2022/07/18 02:54:22;;;;;;;;;;;;;;;27.46;35.31;97475.75;4234749;28;5589;-68
2022/07/18 02:56:25;;;;;;;;;;;;;;;27.46;35.13;97465.69;4236345;27;5648;-67
2022/07/18 02:58:27;;;;;;;;;;;;;;;27.47;35.38;97471.94;4236018;28;5715;-67
2022/07/18 03:00:32;;;;;;;;;;;;;;;27.46;35.35;97478.47;4236292;28;5643;-67
2022/07/18 03:02:35;;;;;;;;;;;;;;;27.44;35.29;97477.94;4235923;28;7664;-67
2022/07/18 03:04:38;;;;;;;;;;;;;;;27.44;34.98;97472.50;4235943;28;5820;-67
2022/07/18 03:06:40;;;;;;;;;;;;;;;27.43;34.90;97481.75;4235802;28;6309;-66
2022/07/18 03:08:43;;;;;;;;;;;;;;;27.44;35.07;97475.22;4236124;28;5660;-67
2022/07/18 03:10:46;;;;;;;;;;;;;;;27.44;35.14;97478.75;4235730;28;5655;-67
2022/07/18 03:12:49;;;;;;;;;;;;;;;27.45;35.18;97474.13;4234581;28;5778;-67
2022/07/18 03:14:52;;;;;;;;;;;;;;;27.44;35.01;97469.81;4234278;28;5623;-68
2022/07/18 03:16:57;;;;;;;;;;;;;;;27.43;35.36;97470.91;4199835;27;8874;-67
2022/07/18 03:19:00;;;;;;;;;;;;;;;27.40;35.07;97474.97;4235794;28;5703;-67
2022/07/18 03:21:03;;;;;;;;;;;;;;;27.39;35.08;97475.25;4235732;28;5730;-67
2022/07/18 03:23:06;;;;;;;;;;;;;;;27.39;35.42;97476.06;4235719;28;5659;-67
2022/07/18 03:25:09;;;;;;;;;;;;;;;27.39;35.30;97480.69;4234419;28;5602;-67
2022/07/18 03:27:17;;;;;;;;;;;;;;;27.38;35.17;97484.50;4235845;28;5654;-67
2022/07/18 03:29:20;;;;;;;;;;;;;;;27.36;35.31;97481.25;4235509;28;5704;-66
2022/07/18 03:31:24;;;;;;;;;;;;;;;27.36;35.32;97475.84;4235554;28;5650;-67
2022/07/18 03:33:28;;;;;;;;;;;;;;;27.35;35.31;97475.03;4235149;28;5659;-67
2022/07/18 03:35:31;;;;;;;;;;;;;;;27.34;35.06;97478.03;4235434;28;5656;-67
2022/07/18 03:37:34;;;;;;;;;;;;;;;27.31;35.18;97479.41;4235963;28;5738;-66
2022/07/18 03:39:37;;;;;;;;;;;;;;;27.32;35.06;97480.22;4234344;28;6287;-66
2022/07/18 03:41:40;;;;;;;;;;;;;;;27.33;35.00;97471.78;4235584;28;5722;-67
2022/07/18 03:43:43;;;;;;;;;;;;;;;27.32;34.89;97469.38;4235235;28;5668;-66
2022/07/18 03:45:47;;;;;;;;;;;;;;;27.28;34.99;97475.34;4235492;28;5655;-67
2022/07/18 03:47:50;;;;;;;;;;;;;;;27.27;34.93;97471.00;4235263;28;5715;-66
2022/07/18 03:49:54;;;;;;;;;;;;;;;27.26;34.95;97472.09;4235405;28;5640;-66
2022/07/18 03:51:57;;;;;;;;;;;;;;;27.25;35.07;97475.09;4233958;28;5606;-66
2022/07/18 03:54:00;;;;;;;;;;;;;;;27.21;35.01;97480.31;4235313;27;5655;-66
2022/07/18 03:56:04;;;;;;;;;;;;;;;27.19;34.88;97482.50;4233986;28;5738;-66
2022/07/18 03:58:07;;;;;;;;;;;;;;;27.19;35.00;97482.50;4235285;28;5660;-66
2022/07/18 04:00:10;;;;;;;;;;;;;;;27.20;34.94;97477.88;4234756;28;5652;-66
2022/07/18 04:02:13;;;;;;;;;;;;;;;27.19;34.94;97487.91;4235126;28;5643;-66
2022/07/18 04:04:16;;;;;;;;;;;;;;;27.19;34.92;97485.22;4235238;28;5648;-66
2022/07/18 04:06:20;;;;;;;;;;;;;;;27.18;34.82;97485.47;4234930;28;5665;-66
2022/07/18 04:08:23;;;;;;;;;;;;;;;27.16;35.14;97488.47;4235125;28;5673;-66
2022/07/18 04:10:26;;;;;;;;;;;;;;;27.15;34.85;97481.41;4233683;28;5622;-66
2022/07/18 04:12:30;;;;;;;;;;;;;;;27.15;34.93;97486.84;4235174;27;5759;-66
2022/07/18 04:14:32;;;;;;;;;;;;;;;27.14;35.31;97487.94;4234580;28;5636;-66
2022/07/18 04:18:59;;;;;;;;;;;;;;;27.14;35.08;97493.38;4165990;28;6459;-67
2022/07/18 04:21:03;;;;;;;;;;;;;;;27.13;34.93;97497.19;4182481;28;5875;-67
2022/07/18 04:23:10;;;;;;;;;;;;;;;27.13;35.01;97493.66;4182597;28;5755;-67
2022/07/18 04:25:13;;;;;;;;;;;;;;;27.13;34.84;97499.91;4183215;28;5778;-67
2022/07/18 04:27:16;;;;;;;;;;;;;;;27.11;34.86;97501.28;4182410;28;5747;-67
2022/07/18 04:29:19;;;;;;;;;;;;;;;27.09;34.93;97496.13;4182210;28;5763;-67
2022/07/18 04:31:22;;;;;;;;;;;;;;;27.08;35.08;97496.41;4182693;28;5855;-67
2022/07/18 04:33:25;;;;;;;;;;;;;;;27.07;35.04;97495.63;4182406;28;5834;-67
2022/07/18 04:35:28;;;;;;;;;;;;;;;27.08;35.11;97491.00;4182642;28;6020;-66
2022/07/18 04:37:31;;;;;;;;;;;;;;;27.07;35.08;97490.19;4202301;28;5696;-66
2022/07/18 04:39:36;;;;;;;;;;;;;;;27.08;35.46;97497.22;4234533;28;6188;-66
2022/07/18 04:41:39;;;;;;;;;;;;;;;27.08;35.52;97499.13;4216462;28;5624;-66
2022/07/18 04:43:42;;;;;;;;;;;;;;;27.07;35.52;97506.47;4234337;28;5600;-66
2022/07/18 04:45:45;;;;;;;;;;;;;;;27.07;35.71;97506.47;4234077;28;5518;-66
2022/07/18 04:47:48;;;;;;;;;;;;;;;27.07;35.71;97501.03;4216367;28;5644;-66
2022/07/18 04:49:51;;;;;;;;;;;;;;;27.08;35.90;97502.66;4234491;28;6269;-66
2022/07/18 04:51:54;;;;;;;;;;;;;;;27.09;35.64;97514.31;4234646;28;5515;-66
2022/07/18 04:53:57;;;;;;;;;;;;;;;27.07;35.96;97509.19;4234688;28;5538;-66
2022/07/18 04:56:01;;;;;;;;;;;;;;;27.08;35.95;97512.69;4234800;28;5510;-66
2022/07/18 04:58:04;;;;;;;;;;;;;;;27.09;36.18;97515.13;4234788;28;5506;-66
2022/07/18 05:00:10;;;;;;;;;;;;;;;27.08;36.00;97505.38;4215995;28;5613;-66
2022/07/18 05:02:13;;;;;;;;;;;;;;;27.09;36.11;97504.28;4234819;28;5577;-66
2022/07/18 05:04:17;;;;;;;;;;;;;;;27.10;36.64;97511.31;4234677;28;5510;-65
2022/07/18 05:06:19;;;;;;;;;;;;;;;27.10;36.90;97508.59;4234448;28;6156;-66
2022/07/18 05:08:22;;;;;;;;;;;;;;;27.11;37.02;97502.09;4234572;28;6294;-66
2022/07/18 05:10:25;;;;;;;;;;;;;;;27.13;36.88;97509.94;4234351;28;5521;-66
2022/07/18 05:12:29;;;;;;;;;;;;;;;27.14;36.88;97503.41;4216454;28;5620;-66
2022/07/18 05:14:32;;;;;;;;;;;;;;;27.14;37.50;97508.84;4215857;28;6417;-66
2022/07/18 05:16:41;;;;;;;;;;;;;;;27.16;37.20;97512.09;4234520;28;5790;-66
2022/07/18 05:18:44;;;;;;;;;;;;;;;27.19;37.72;97508.81;4200499;27;5591;-66
2022/07/18 05:20:47;;;;;;;;;;;;;;;27.21;37.47;97506.63;4251274;27;5587;-67
2022/07/18 05:22:51;;;;;;;;;;;;;;;27.21;37.97;97507.44;4251648;27;5610;-66
2022/07/18 05:24:54;;;;;;;;;;;;;;;27.21;37.97;97507.44;4251871;27;6268;-66
2022/07/18 05:26:57;;;;;;;;;;;;;;;27.22;38.15;97509.06;4226492;27;5835;-65
2022/07/18 05:29:01;;;;;;;;;;;;;;;27.22;38.33;97509.06;4217312;28;6319;-65
2022/07/18 05:31:04;;;;;;;;;;;;;;;27.22;38.26;97506.34;4217631;28;5677;-66
2022/07/18 05:33:07;;;;;;;;;;;;;;;27.20;38.67;97499.59;4217383;28;5658;-66
2022/07/18 05:35:12;;;;;;;;;;;;;;;27.18;38.23;97508.03;4217164;28;5678;-67
2022/07/18 05:37:15;;;;;;;;;;;;;;;27.20;38.52;97503.13;4217303;28;5688;-66
2022/07/18 05:39:18;;;;;;;;;;;;;;;27.25;38.43;97513.09;4217289;28;5767;-67
2022/07/18 05:41:21;;;;;;;;;;;;;;;27.33;38.69;97511.69;4217405;28;5674;-67
2022/07/18 05:43:24;;;;;;;;;;;;;;;27.49;38.68;97513.19;4217145;28;5670;-66
2022/07/18 05:45:28;;;;;;;;;;;;;;;27.71;38.58;97516.28;4217217;28;5653;-67
2022/07/18 05:47:31;;;;;;;;;;;;;;;27.93;38.41;97512.28;4215950;28;5810;-67
2022/07/18 05:49:34;;;;;;;;;;;;;;;28.12;38.06;97500.38;4217157;28;5764;-67
2022/07/18 05:51:37;;;;;;;;;;;;;;;28.27;38.15;97509.44;4217438;28;5772;-67
2022/07/18 05:53:40;;;;;;;;;;;;;;;28.35;38.02;97506.94;4217238;28;5677;-66
2022/07/18 05:55:43;;;;;;;;;;;;;;;28.50;38.16;97507.84;4217463;28;5736;-66
2022/07/18 05:57:46;;;;;;;;;;;;;;;28.63;37.95;97507.13;4219089;28;5613;-66
2022/07/18 05:59:49;;;;;;;;;;;;;;;28.71;37.82;97507.28;4218612;28;5620;-66
2022/07/18 06:01:54;;;;;;;;;;;;;;;28.79;37.77;97514.00;4220218;28;5683;-66
2022/07/18 06:03:57;;;;;;;;;;;;;;;28.85;37.65;97512.81;4220088;28;5797;-66
2022/07/18 06:06:00;;;;;;;;;;;;;;;28.90;37.86;97514.69;4219955;28;5678;-66
2022/07/18 06:08:03;;;;;;;;;;;;;;;28.89;37.74;97513.91;4220340;28;5673;-66
2022/07/18 06:10:06;;;;;;;;;;;;;;;28.95;37.88;97507.25;4219744;28;5744;-66
2022/07/18 06:12:09;;;;;;;;;;;;;;;28.98;37.91;97514.81;4219924;28;8409;-66
2022/07/18 06:14:12;;;;;;;;;;;;;;;29.02;37.94;97506.09;4219643;28;5658;-66
2022/07/18 06:16:16;;;;;;;;;;;;;;;29.03;37.97;97513.16;4219633;28;5661;-65
2022/07/18 06:18:20;;;;;;;;;;;;;;;29.05;37.96;97502.78;4184921;28;5681;-66
2022/07/18 06:20:23;;;;;;;;;;;;;;;29.02;37.92;97506.09;4220014;28;5673;-66
2022/07/18 06:22:26;;;;;;;;;;;;;;;29.02;37.94;97508.81;4219785;28;5689;-66
2022/07/18 06:24:29;;;;;;;;;;;;;;;29.04;38.08;97503.88;4219671;28;5674;-66
2022/07/18 06:26:32;;;;;;;;;;;;;;;29.07;37.99;97506.00;4219941;28;5662;-66
2022/07/18 06:28:35;;;;;;;;;;;;;;;29.04;37.95;97501.16;4219550;28;5934;-66
2022/07/18 06:30:38;;;;;;;;;;;;;;;29.05;37.74;97506.31;4219931;28;5690;-65
2022/07/18 06:32:42;;;;;;;;;;;;;;;29.06;38.00;97501.66;4220042;28;5685;-66
2022/07/18 06:34:47;;;;;;;;;;;;;;;29.08;38.04;97499.44;4218284;28;5759;-67
2022/07/18 06:36:50;;;;;;;;;;;;;;;29.07;37.95;97503.28;4219535;28;5677;-66
2022/07/18 06:38:53;;;;;;;;;;;;;;;29.10;37.96;97497.25;4219569;28;5693;-66
2022/07/18 06:40:56;;;;;;;;;;;;;;;29.15;37.91;97497.19;4219306;28;6933;-66
2022/07/18 06:42:59;;;;;;;;;;;;;;;29.14;37.81;97499.09;4219455;28;5669;-67
2022/07/18 06:45:03;;;;;;;;;;;;;;;29.17;37.75;97492.25;4215890;28;5715;-66
2022/07/18 06:47:13;;;;;;;;;;;;;;;29.18;37.76;97494.66;4219518;28;5672;-66
2022/07/18 06:49:16;;;;;;;;;;;;;;;29.21;37.68;97501.41;4219520;28;5672;-67
2022/07/18 06:51:21;;;;;;;;;;;;;;;29.23;37.50;97499.25;4219293;28;5090;-67
2022/07/18 06:53:24;;;;;;;;;;;;;;;29.21;37.67;97504.16;4219779;28;5662;-67
2022/07/18 06:55:27;;;;;;;;;;;;;;;29.25;37.41;97505.19;4218136;28;5624;-66
2022/07/18 06:57:30;;;;;;;;;;;;;;;29.26;37.33;97498.63;4216075;28;5611;-66
2022/07/18 06:59:33;;;;;;;;;;;;;;;29.23;37.16;97510.13;4207476;28;5701;-66
2022/07/18 07:01:35;;;;;;;;;;;;;;;29.23;37.22;97496.50;4219423;28;5669;-67
2022/07/18 07:03:39;;;;;;;;;;;;;;;29.22;36.97;97498.44;4219010;28;5676;-67
2022/07/18 07:05:42;;;;;;;;;;;;;;;29.20;36.88;97499.81;4219066;28;5779;-66
2022/07/18 07:07:47;;;;;;;;;;;;;;;29.17;36.86;97500.41;4218375;28;7702;-66
2022/07/18 07:09:50;;;;;;;;;;;;;;;29.15;36.72;97505.34;4219445;28;5680;-66
2022/07/18 07:11:53;;;;;;;;;;;;;;;29.12;36.76;97503.22;4211571;28;5694;-66
2022/07/18 07:13:56;;;;;;;;;;;;;;;29.08;36.86;97502.97;4210575;28;5135;-66
2022/07/18 07:15:59;;;;;;;;;;;;;;;29.05;36.64;97500.84;4210306;28;5702;-66
2022/07/18 07:18:02;;;;;;;;;;;;;;;29.03;36.70;97502.25;4173394;27;5580;-66
2022/07/18 07:20:07;;;;;;;;;;;;;;;29.03;36.71;97496.81;4220247;27;6418;-66
2022/07/18 07:22:10;;;;;;;;;;;;;;;29.02;36.50;97506.09;4219170;28;5866;-66
2022/07/18 07:24:14;;;;;;;;;;;;;;;28.98;36.66;97506.66;4219518;28;5624;-66
2022/07/18 07:26:17;;;;;;;;;;;;;;;28.97;36.43;97504.25;4224415;27;5792;-66
2022/07/18 07:28:21;;;;;;;;;;;;;;;28.94;36.55;97499.38;4223541;28;5793;-67
2022/07/18 07:30:24;;;;;;;;;;;;;;;28.93;36.41;97503.22;4220047;28;5825;-67
2022/07/18 07:32:27;;;;;;;;;;;;;;;28.91;36.50;97497.25;4225961;28;5598;-67
2022/07/18 07:34:30;;;;;;;;;;;;;;;28.88;36.26;97492.38;4235657;28;5805;-67
2022/07/18 07:36:33;;;;;;;;;;;;;;;28.85;36.31;97485.59;4217008;28;5644;-67
2022/07/18 07:38:37;;;;;;;;;;;;;;;28.82;36.12;97491.63;4235396;28;6259;-67
2022/07/18 07:40:41;;;;;;;;;;;;;;;28.79;36.14;97492.22;4210313;28;5710;-67
2022/07/18 07:42:44;;;;;;;;;;;;;;;28.78;36.15;97490.63;4219841;28;5594;-67
2022/07/18 07:44:47;;;;;;;;;;;;;;;28.75;36.05;97491.19;4218116;28;5802;-67
2022/07/18 07:46:51;;;;;;;;;;;;;;;28.75;36.09;97496.63;4219137;28;5696;-67
2022/07/18 07:48:55;;;;;;;;;;;;;;;28.74;35.92;97488.75;4217753;27;5712;-67
2022/07/18 07:50:58;;;;;;;;;;;;;;;28.73;35.91;97487.94;4224905;28;5629;-67
2022/07/18 07:53:01;;;;;;;;;;;;;;;28.71;35.66;97485.53;4215290;28;5628;-67
2022/07/18 07:55:05;;;;;;;;;;;;;;;28.68;35.86;97490.75;4200908;28;5647;-67
2022/07/18 07:57:09;;;;;;;;;;;;;;;28.62;36.03;97500.06;4219930;28;5712;-68
2022/07/18 07:59:12;;;;;;;;;;;;;;;28.57;36.12;97494.72;4229180;28;5903;-67
2022/07/18 08:01:19;;;;;;;;;;;;;;;28.52;36.08;97497.47;4201420;28;5766;-67
2022/07/18 08:03:22;;;;;;;;;;;;;;;28.42;36.18;97488.34;4222149;28;5594;-67
2022/07/18 08:05:26;;;;;;;;;;;;;;;28.36;36.20;97486.81;4232159;27;5613;-67
2022/07/18 08:07:29;;;;;;;;;;;;;;;28.41;36.38;97489.44;4217097;28;5643;-67
2022/07/18 08:09:32;;;;;;;;;;;;;;;28.43;36.40;97483.75;4220584;27;5645;-67
2022/07/18 08:11:35;;;;;;;;;;;;;;;28.41;36.40;97489.44;4225782;28;5609;-67
2022/07/18 08:13:41;;;;;;;;;;;;;;;28.37;36.48;97480.25;4230130;28;5834;-67
2022/07/18 08:15:45;;;;;;;;;;;;;;;28.38;36.44;97487.31;4228540;28;5616;-67
2022/07/18 08:17:48;;;;;;;;;;;;;;;28.39;36.15;97488.13;4182169;27;5134;-67
2022/07/18 08:19:52;;;;;;;;;;;;;;;28.37;36.34;97484.91;4218009;28;5601;-68
2022/07/18 08:21:56;;;;;;;;;;;;;;;28.34;36.46;97486.28;4217574;28;5771;-67
2022/07/18 08:23:59;;;;;;;;;;;;;;;28.32;36.21;97483.06;4221333;28;5636;-67
2022/07/18 08:26:07;;;;;;;;;;;;;;;28.32;36.52;97484.97;4223013;28;5742;-67
2022/07/18 08:28:10;;;;;;;;;;;;;;;28.33;36.59;97479.25;4234810;28;5601;-67
2022/07/18 08:30:14;;;;;;;;;;;;;;;28.35;36.58;97479.75;4226905;28;5616;-67
2022/07/18 08:32:17;;;;;;;;;;;;;;;28.36;36.47;97477.84;4198829;28;5643;-67
2022/07/18 08:34:20;;;;;;;;;;;;;;;28.35;36.61;97479.75;4220792;28;5810;-68
2022/07/18 08:36:24;;;;;;;;;;;;;;;28.33;36.63;97476.53;4220556;28;5677;-60
2022/07/18 08:38:27;;;;;;;;;;;;;;;28.36;36.51;97477.84;4219149;27;5610;-60
2022/07/18 08:40:30;;;;;;;;;;;;;;;28.39;36.50;97483.50;4223169;27;5684;-60
2022/07/18 08:42:34;;;;;;;;;;;;;;;28.39;36.56;97480.78;4199081;28;5128;-60
2022/07/18 08:44:48;;;;;;;;;;;;;;;28.34;36.66;97475.41;4223735;28;6306;-60
2022/07/18 08:46:53;;;;;;;;;;;;;;;28.35;36.62;97482.47;4234294;27;5610;-60
2022/07/18 08:48:57;;;;;;;;;;;;;;;28.35;36.95;97477.03;4229690;27;5763;-60
2022/07/18 08:51:01;;;;;;;;;;;;;;;28.38;36.82;97471.00;4217747;28;5613;-59
2022/07/18 08:53:04;;;;;;;;;;;;;;;28.42;36.85;97472.03;4225350;28;5610;-59
2022/07/18 08:55:09;;;;;;;;;;;;;;;28.44;36.82;97473.69;4221776;28;5637;-60
2022/07/18 08:57:29;;;;;;;;;;;;;;;28.40;37.03;97474.22;4199203;28;5801;-59
2022/07/18 08:59:32;;;;;;;;;;;;;;;28.36;37.06;97475.94;4222718;28;5707;-59
2022/07/18 09:01:37;;;;;;;;;;;;;;;28.35;37.23;97479.75;4218067;28;5675;-59
2022/07/18 09:03:41;;;;;;;;;;;;;;;28.35;37.02;97466.16;4221709;28;6303;-60
2022/07/18 09:05:44;;;;;;;;;;;;;;;28.35;37.03;97473.50;4226324;28;5133;-60
2022/07/18 09:07:49;;;;;;;;;;;;;;;28.37;37.12;97468.56;4219220;28;5684;-59
2022/07/18 09:09:57;;;;;;;;;;;;;;;28.36;37.13;97462.34;4235258;27;5112;-60
2022/07/18 09:12:03;;;;;;;;;;;;;;;28.42;37.07;97466.59;4220680;28;5636;-61
2022/07/18 09:14:06;;;;;;;;;;;;;;;28.41;37.25;97470.41;4217820;28;5739;-61
2022/07/18 09:16:11;;;;;;;;;;;;;;;28.42;37.36;97472.03;4221147;28;5614;-60
2022/07/18 09:18:16;;;;;;;;;;;;;;;28.44;37.33;97469.03;4171569;28;5605;-60
2022/07/18 09:20:40;;;;;;;;;;;;;;;28.46;37.21;97463.31;4227607;28;5752;-61
2022/07/18 09:22:47;;;;;;;;;;;;;;;28.47;37.20;97459.47;4232198;28;5613;-61
2022/07/18 09:24:56;;;;;;;;;;;;;;;28.49;37.13;97454.56;4226922;28;5589;-60
2022/07/18 09:26:59;;;;;;;;;;;;;;;28.52;37.31;97462.13;4233801;28;5609;-75
2022/07/18 09:29:03;;;;;;;;;;;;;;;28.51;37.22;97458.59;4233151;28;7745;-78
2022/07/18 09:31:27;;;;;;;;;;;;;;;28.46;37.15;97461.41;4217592;28;5616;-77
2022/07/18 09:33:30;;;;;;;;;;;;;;;28.45;37.12;97461.69;4231564;28;5613;-77
2022/07/18 09:35:35;;;;;;;;;;;;;;;28.45;37.26;97453.53;4228273;28;5761;-76
2022/07/18 09:37:40;;;;;;;;;;;;;;;28.46;37.17;97455.97;4231946;28;5836;-76
2022/07/18 09:39:43;;;;;;;;;;;;;;;28.49;36.98;97454.56;4236465;28;5710;-75
